sensor_id;sensor_type;location;lat;lon;timestamp;temperature;humidity
17296;DHT22;8766;51.480;6.872;2022-10-01T00:02:05;13.80;62.30
17296;DHT22;8766;51.480;6.872;2022-10-01T00:04:34;13.90;62.30
17296;DHT22;8766;51.480;6.872;2022-10-01T00:07:01;13.90;62.30
17296;DHT22;8766;51.480;6.872;2022-10-01T00:09:30;13.90;62.30
17296;DHT22;8766;51.480;6.872;2022-10-01T00:11:57;13.90;62.30
17296;DHT22;8766;51.480;6.872;2022-10-01T00:14:25;13.90;62.30
17296;DHT22;8766;51.480;6.872;2022-10-01T00:16:54;13.90;62.30
17296;DHT22;8766;51.480;6.872;2022-10-01T00:19:21;13.80;62.30
17296;DHT22;8766;51.480;6.872;2022-10-01T00:21:48;13.80;62.40
17296;DHT22;8766;51.480;6.872;2022-10-01T00:24:15;13.80;62.50
17296;DHT22;8766;51.480;6.872;2022-10-01T00:26:43;13.70;62.50
17296;DHT22;8766;51.480;6.872;2022-10-01T00:29:13;13.70;62.90
17296;DHT22;8766;51.480;6.872;2022-10-01T00:31:40;13.60;62.70
17296;DHT22;8766;51.480;6.872;2022-10-01T00:34:11;13.60;62.80
17296;DHT22;8766;51.480;6.872;2022-10-01T00:36:39;13.60;62.90
17296;DHT22;8766;51.480;6.872;2022-10-01T00:39:08;13.60;63.00
17296;DHT22;8766;51.480;6.872;2022-10-01T00:41:35;13.50;63.00
17296;DHT22;8766;51.480;6.872;2022-10-01T00:46:45;13.50;63.20
17296;DHT22;8766;51.480;6.872;2022-10-01T00:49:16;13.40;63.20
17296;DHT22;8766;51.480;6.872;2022-10-01T00:51:48;13.40;63.30
17296;DHT22;8766;51.480;6.872;2022-10-01T00:54:20;13.40;63.40
17296;DHT22;8766;51.480;6.872;2022-10-01T00:56:50;13.40;63.40
17296;DHT22;8766;51.480;6.872;2022-10-01T00:59:23;13.30;63.50
17296;DHT22;8766;51.480;6.872;2022-10-01T01:01:51;13.30;63.60
17296;DHT22;8766;51.480;6.872;2022-10-01T01:07:27;13.30;63.70
17296;DHT22;8766;51.480;6.872;2022-10-01T01:09:55;13.20;63.70
17296;DHT22;8766;51.480;6.872;2022-10-01T01:12:35;13.20;63.80
17296;DHT22;8766;51.480;6.872;2022-10-01T01:15:14;13.20;63.90
17296;DHT22;8766;51.480;6.872;2022-10-01T01:17:52;13.20;63.80
17296;DHT22;8766;51.480;6.872;2022-10-01T01:20:37;13.20;63.90
17296;DHT22;8766;51.480;6.872;2022-10-01T01:26:12;13.10;63.90
17296;DHT22;8766;51.480;6.872;2022-10-01T01:28:46;13.10;63.90
17296;DHT22;8766;51.480;6.872;2022-10-01T01:31:20;13.10;64.00
17296;DHT22;8766;51.480;6.872;2022-10-01T01:33:51;13.10;64.00
17296;DHT22;8766;51.480;6.872;2022-10-01T01:36:23;13.10;64.60
17296;DHT22;8766;51.480;6.872;2022-10-01T01:38:54;13.10;64.00
17296;DHT22;8766;51.480;6.872;2022-10-01T01:41:25;13.10;64.00
17296;DHT22;8766;51.480;6.872;2022-10-01T01:43:57;13.10;64.10
17296;DHT22;8766;51.480;6.872;2022-10-01T01:46:29;13.10;64.20
17296;DHT22;8766;51.480;6.872;2022-10-01T01:48:59;13.10;64.20
17296;DHT22;8766;51.480;6.872;2022-10-01T01:51:32;13.00;64.20
17296;DHT22;8766;51.480;6.872;2022-10-01T01:54:02;13.10;64.20
17296;DHT22;8766;51.480;6.872;2022-10-01T01:56:30;13.10;64.20
17296;DHT22;8766;51.480;6.872;2022-10-01T01:59:00;13.10;64.20
17296;DHT22;8766;51.480;6.872;2022-10-01T02:01:35;13.00;64.20
17296;DHT22;8766;51.480;6.872;2022-10-01T02:04:06;13.00;64.20
17296;DHT22;8766;51.480;6.872;2022-10-01T02:06:47;13.10;64.30
17296;DHT22;8766;51.480;6.872;2022-10-01T02:09:22;13.00;64.30
17296;DHT22;8766;51.480;6.872;2022-10-01T02:12:01;13.10;64.40
17296;DHT22;8766;51.480;6.872;2022-10-01T02:14:38;13.00;64.30
17296;DHT22;8766;51.480;6.872;2022-10-01T02:17:11;13.00;64.40
17296;DHT22;8766;51.480;6.872;2022-10-01T02:19:49;13.00;64.40
17296;DHT22;8766;51.480;6.872;2022-10-01T02:22:22;13.00;64.50
17296;DHT22;8766;51.480;6.872;2022-10-01T02:24:53;13.00;64.50
17296;DHT22;8766;51.480;6.872;2022-10-01T02:27:25;13.00;64.50
17296;DHT22;8766;51.480;6.872;2022-10-01T02:29:57;12.90;64.50
17296;DHT22;8766;51.480;6.872;2022-10-01T02:32:26;13.00;64.60
17296;DHT22;8766;51.480;6.872;2022-10-01T02:34:54;12.90;64.60
17296;DHT22;8766;51.480;6.872;2022-10-01T02:37:24;12.90;64.70
17296;DHT22;8766;51.480;6.872;2022-10-01T02:39:54;12.90;64.60
17296;DHT22;8766;51.480;6.872;2022-10-01T02:42:24;13.00;64.70
17296;DHT22;8766;51.480;6.872;2022-10-01T02:44:54;12.90;64.70
17296;DHT22;8766;51.480;6.872;2022-10-01T02:47:25;12.90;64.70
17296;DHT22;8766;51.480;6.872;2022-10-01T02:49:53;12.90;64.80
17296;DHT22;8766;51.480;6.872;2022-10-01T02:52:27;12.90;64.80
17296;DHT22;8766;51.480;6.872;2022-10-01T02:54:58;12.90;64.90
17296;DHT22;8766;51.480;6.872;2022-10-01T02:57:26;12.90;64.90
17296;DHT22;8766;51.480;6.872;2022-10-01T02:59:56;12.90;64.90
17296;DHT22;8766;51.480;6.872;2022-10-01T03:02:24;12.90;64.90
17296;DHT22;8766;51.480;6.872;2022-10-01T03:04:52;12.90;65.00
17296;DHT22;8766;51.480;6.872;2022-10-01T03:07:19;12.80;65.00
17296;DHT22;8766;51.480;6.872;2022-10-01T03:09:47;12.80;65.10
17296;DHT22;8766;51.480;6.872;2022-10-01T03:12:15;12.80;65.10
17296;DHT22;8766;51.480;6.872;2022-10-01T03:14:43;12.80;65.20
17296;DHT22;8766;51.480;6.872;2022-10-01T03:17:12;12.80;65.20
17296;DHT22;8766;51.480;6.872;2022-10-01T03:19:40;12.80;65.20
17296;DHT22;8766;51.480;6.872;2022-10-01T03:22:07;12.80;65.30
17296;DHT22;8766;51.480;6.872;2022-10-01T03:24:34;12.80;65.30
17296;DHT22;8766;51.480;6.872;2022-10-01T03:27:01;12.80;65.30
17296;DHT22;8766;51.480;6.872;2022-10-01T03:29:27;12.80;65.40
17296;DHT22;8766;51.480;6.872;2022-10-01T03:31:54;12.80;65.40
17296;DHT22;8766;51.480;6.872;2022-10-01T03:34:23;12.80;65.30
17296;DHT22;8766;51.480;6.872;2022-10-01T03:36:50;12.80;65.30
17296;DHT22;8766;51.480;6.872;2022-10-01T03:39:17;12.80;65.30
17296;DHT22;8766;51.480;6.872;2022-10-01T03:41:44;12.80;65.30
17296;DHT22;8766;51.480;6.872;2022-10-01T03:44:11;12.80;65.30
17296;DHT22;8766;51.480;6.872;2022-10-01T03:46:38;12.80;65.30
17296;DHT22;8766;51.480;6.872;2022-10-01T03:49:05;12.80;65.30
17296;DHT22;8766;51.480;6.872;2022-10-01T03:51:33;12.80;65.40
17296;DHT22;8766;51.480;6.872;2022-10-01T03:54:03;12.80;65.40
17296;DHT22;8766;51.480;6.872;2022-10-01T03:56:30;12.80;65.50
17296;DHT22;8766;51.480;6.872;2022-10-01T03:58:57;12.80;65.50
17296;DHT22;8766;51.480;6.872;2022-10-01T04:01:24;12.80;65.60
17296;DHT22;8766;51.480;6.872;2022-10-01T04:03:51;12.80;65.60
17296;DHT22;8766;51.480;6.872;2022-10-01T04:06:18;12.80;65.60
17296;DHT22;8766;51.480;6.872;2022-10-01T04:08:48;12.80;65.60
17296;DHT22;8766;51.480;6.872;2022-10-01T04:11:15;12.80;65.70
17296;DHT22;8766;51.480;6.872;2022-10-01T04:13:42;12.80;65.70
17296;DHT22;8766;51.480;6.872;2022-10-01T04:16:09;12.80;65.80
17296;DHT22;8766;51.480;6.872;2022-10-01T04:18:36;12.70;65.70
17296;DHT22;8766;51.480;6.872;2022-10-01T04:21:03;12.80;65.70
17296;DHT22;8766;51.480;6.872;2022-10-01T04:23:30;12.80;65.70
17296;DHT22;8766;51.480;6.872;2022-10-01T04:26:01;12.80;65.70
17296;DHT22;8766;51.480;6.872;2022-10-01T04:28:28;12.80;65.70
17296;DHT22;8766;51.480;6.872;2022-10-01T04:30:56;12.80;65.70
17296;DHT22;8766;51.480;6.872;2022-10-01T04:33:37;12.80;65.60
17296;DHT22;8766;51.480;6.872;2022-10-01T04:36:04;12.80;65.70
17296;DHT22;8766;51.480;6.872;2022-10-01T04:38:31;12.80;65.70
17296;DHT22;8766;51.480;6.872;2022-10-01T04:40:59;12.90;65.70
17296;DHT22;8766;51.480;6.872;2022-10-01T04:43:26;12.80;65.70
17296;DHT22;8766;51.480;6.872;2022-10-01T04:45:53;12.80;65.70
17296;DHT22;8766;51.480;6.872;2022-10-01T04:48:20;12.80;65.70
17296;DHT22;8766;51.480;6.872;2022-10-01T04:50:47;12.80;65.70
17296;DHT22;8766;51.480;6.872;2022-10-01T04:53:14;12.80;65.70
17296;DHT22;8766;51.480;6.872;2022-10-01T04:55:41;12.80;65.70
17296;DHT22;8766;51.480;6.872;2022-10-01T04:58:09;12.90;65.80
17296;DHT22;8766;51.480;6.872;2022-10-01T05:00:36;12.90;65.80
17296;DHT22;8766;51.480;6.872;2022-10-01T05:03:03;12.90;65.80
17296;DHT22;8766;51.480;6.872;2022-10-01T05:05:30;12.90;65.80
17296;DHT22;8766;51.480;6.872;2022-10-01T05:07:59;12.90;65.80
17296;DHT22;8766;51.480;6.872;2022-10-01T05:10:26;12.90;65.80
17296;DHT22;8766;51.480;6.872;2022-10-01T05:12:53;12.90;66.40
17296;DHT22;8766;51.480;6.872;2022-10-01T05:15:23;13.00;65.80
17296;DHT22;8766;51.480;6.872;2022-10-01T05:17:50;12.90;65.70
17296;DHT22;8766;51.480;6.872;2022-10-01T05:20:19;12.90;65.70
17296;DHT22;8766;51.480;6.872;2022-10-01T05:22:47;12.90;65.70
17296;DHT22;8766;51.480;6.872;2022-10-01T05:25:15;12.90;65.80
17296;DHT22;8766;51.480;6.872;2022-10-01T05:27:45;12.90;65.80
17296;DHT22;8766;51.480;6.872;2022-10-01T05:30:13;12.90;65.60
17296;DHT22;8766;51.480;6.872;2022-10-01T05:33:00;12.90;65.80
17296;DHT22;8766;51.480;6.872;2022-10-01T05:35:28;13.00;65.90
17296;DHT22;8766;51.480;6.872;2022-10-01T05:37:56;13.00;65.80
17296;DHT22;8766;51.480;6.872;2022-10-01T05:40:23;13.00;65.80
17296;DHT22;8766;51.480;6.872;2022-10-01T05:42:52;13.00;65.80
17296;DHT22;8766;51.480;6.872;2022-10-01T05:45:19;13.00;65.90
17296;DHT22;8766;51.480;6.872;2022-10-01T05:47:48;13.00;65.80
17296;DHT22;8766;51.480;6.872;2022-10-01T05:50:22;13.10;65.90
17296;DHT22;8766;51.480;6.872;2022-10-01T05:52:50;13.00;65.80
17296;DHT22;8766;51.480;6.872;2022-10-01T05:55:18;13.00;65.80
17296;DHT22;8766;51.480;6.872;2022-10-01T05:57:53;13.00;65.80
17296;DHT22;8766;51.480;6.872;2022-10-01T06:00:20;13.10;65.80
17296;DHT22;8766;51.480;6.872;2022-10-01T06:02:49;13.10;65.80
17296;DHT22;8766;51.480;6.872;2022-10-01T06:05:17;13.10;65.80
17296;DHT22;8766;51.480;6.872;2022-10-01T06:07:45;13.10;65.80
17296;DHT22;8766;51.480;6.872;2022-10-01T06:10:12;13.10;65.80
17296;DHT22;8766;51.480;6.872;2022-10-01T06:12:39;13.10;65.80
17296;DHT22;8766;51.480;6.872;2022-10-01T06:15:08;13.10;65.80
17296;DHT22;8766;51.480;6.872;2022-10-01T06:17:36;13.20;65.90
17296;DHT22;8766;51.480;6.872;2022-10-01T06:20:09;13.20;65.90
17296;DHT22;8766;51.480;6.872;2022-10-01T06:22:37;13.20;65.90
17296;DHT22;8766;51.480;6.872;2022-10-01T06:25:06;13.20;65.80
17296;DHT22;8766;51.480;6.872;2022-10-01T06:27:36;13.20;65.80
17296;DHT22;8766;51.480;6.872;2022-10-01T06:30:04;13.20;66.00
17296;DHT22;8766;51.480;6.872;2022-10-01T06:32:31;13.20;65.80
17296;DHT22;8766;51.480;6.872;2022-10-01T06:34:59;13.20;65.80
17296;DHT22;8766;51.480;6.872;2022-10-01T06:37:25;13.30;65.80
17296;DHT22;8766;51.480;6.872;2022-10-01T06:39:53;13.30;65.80
17296;DHT22;8766;51.480;6.872;2022-10-01T06:42:21;13.30;65.80
17296;DHT22;8766;51.480;6.872;2022-10-01T06:44:48;13.30;65.80
17296;DHT22;8766;51.480;6.872;2022-10-01T06:47:15;13.30;65.80
17296;DHT22;8766;51.480;6.872;2022-10-01T06:49:42;13.30;65.80
17296;DHT22;8766;51.480;6.872;2022-10-01T06:52:09;13.30;65.80
17296;DHT22;8766;51.480;6.872;2022-10-01T06:54:53;13.30;65.80
17296;DHT22;8766;51.480;6.872;2022-10-01T06:57:22;13.40;65.80
17296;DHT22;8766;51.480;6.872;2022-10-01T06:59:49;13.40;65.70
17296;DHT22;8766;51.480;6.872;2022-10-01T07:02:20;13.40;65.70
17296;DHT22;8766;51.480;6.872;2022-10-01T07:04:48;13.40;65.70
17296;DHT22;8766;51.480;6.872;2022-10-01T07:07:15;13.40;65.70
17296;DHT22;8766;51.480;6.872;2022-10-01T07:09:42;13.50;65.70
17296;DHT22;8766;51.480;6.872;2022-10-01T07:12:08;13.50;65.70
17296;DHT22;8766;51.480;6.872;2022-10-01T07:14:37;13.50;65.70
17296;DHT22;8766;51.480;6.872;2022-10-01T07:17:04;13.50;65.60
17296;DHT22;8766;51.480;6.872;2022-10-01T07:19:31;13.50;65.60
17296;DHT22;8766;51.480;6.872;2022-10-01T07:21:58;13.50;65.50
17296;DHT22;8766;51.480;6.872;2022-10-01T07:24:25;13.60;65.60
17296;DHT22;8766;51.480;6.872;2022-10-01T07:26:52;13.60;65.60
17296;DHT22;8766;51.480;6.872;2022-10-01T07:29:20;13.60;65.50
17296;DHT22;8766;51.480;6.872;2022-10-01T07:31:49;13.60;65.50
17296;DHT22;8766;51.480;6.872;2022-10-01T07:34:16;13.60;65.50
17296;DHT22;8766;51.480;6.872;2022-10-01T07:37:06;13.70;65.50
17296;DHT22;8766;51.480;6.872;2022-10-01T07:39:35;13.70;65.50
17296;DHT22;8766;51.480;6.872;2022-10-01T07:42:03;13.70;65.40
17296;DHT22;8766;51.480;6.872;2022-10-01T07:44:30;13.70;65.40
17296;DHT22;8766;51.480;6.872;2022-10-01T07:46:59;13.80;65.40
17296;DHT22;8766;51.480;6.872;2022-10-01T07:49:26;13.80;65.30
17296;DHT22;8766;51.480;6.872;2022-10-01T07:51:54;13.90;65.30
17296;DHT22;8766;51.480;6.872;2022-10-01T07:54:25;13.90;65.10
17296;DHT22;8766;51.480;6.872;2022-10-01T07:56:54;14.00;65.10
17296;DHT22;8766;51.480;6.872;2022-10-01T07:59:23;14.00;65.00
17296;DHT22;8766;51.480;6.872;2022-10-01T08:01:52;14.10;64.90
17296;DHT22;8766;51.480;6.872;2022-10-01T08:04:23;14.20;64.60
17296;DHT22;8766;51.480;6.872;2022-10-01T08:07:09;14.40;64.30
17296;DHT22;8766;51.480;6.872;2022-10-01T08:09:37;14.50;64.00
17296;DHT22;8766;51.480;6.872;2022-10-01T08:12:04;14.60;63.80
17296;DHT22;8766;51.480;6.872;2022-10-01T08:14:31;14.80;63.50
17296;DHT22;8766;51.480;6.872;2022-10-01T08:16:58;15.00;63.10
17296;DHT22;8766;51.480;6.872;2022-10-01T08:19:26;15.20;62.60
17296;DHT22;8766;51.480;6.872;2022-10-01T08:21:53;15.40;62.40
17296;DHT22;8766;51.480;6.872;2022-10-01T08:24:20;15.40;62.20
17296;DHT22;8766;51.480;6.872;2022-10-01T08:26:50;15.50;62.10
17296;DHT22;8766;51.480;6.872;2022-10-01T08:29:18;15.70;61.90
17296;DHT22;8766;51.480;6.872;2022-10-01T08:31:45;15.90;61.60
17296;DHT22;8766;51.480;6.872;2022-10-01T08:34:12;16.20;61.60
17296;DHT22;8766;51.480;6.872;2022-10-01T08:36:40;16.40;60.60
17296;DHT22;8766;51.480;6.872;2022-10-01T08:39:07;16.50;60.40
17296;DHT22;8766;51.480;6.872;2022-10-01T08:41:43;16.50;60.40
17296;DHT22;8766;51.480;6.872;2022-10-01T08:44:18;16.50;60.30
17296;DHT22;8766;51.480;6.872;2022-10-01T08:46:47;16.60;60.50
17296;DHT22;8766;51.480;6.872;2022-10-01T08:49:18;16.50;60.50
17296;DHT22;8766;51.480;6.872;2022-10-01T08:51:51;16.40;60.80
17296;DHT22;8766;51.480;6.872;2022-10-01T08:54:29;16.30;61.30
17296;DHT22;8766;51.480;6.872;2022-10-01T08:57:00;16.10;61.70
17296;DHT22;8766;51.480;6.872;2022-10-01T08:59:34;16.00;62.00
17296;DHT22;8766;51.480;6.872;2022-10-01T09:02:17;16.00;62.10
17296;DHT22;8766;51.480;6.872;2022-10-01T09:04:45;16.00;62.30
17296;DHT22;8766;51.480;6.872;2022-10-01T09:07:27;15.90;62.30
17296;DHT22;8766;51.480;6.872;2022-10-01T09:10:01;15.90;62.50
17296;DHT22;8766;51.480;6.872;2022-10-01T09:12:39;16.00;62.30
17296;DHT22;8766;51.480;6.872;2022-10-01T09:15:17;16.20;62.10
17296;DHT22;8766;51.480;6.872;2022-10-01T09:17:58;16.20;61.80
17296;DHT22;8766;51.480;6.872;2022-10-01T09:20:30;16.20;61.90
17296;DHT22;8766;51.480;6.872;2022-10-01T09:23:14;16.10;62.10
17296;DHT22;8766;51.480;6.872;2022-10-01T09:25:44;16.00;62.50
17296;DHT22;8766;51.480;6.872;2022-10-01T09:28:16;15.90;62.70
17296;DHT22;8766;51.480;6.872;2022-10-01T09:30:49;15.80;63.10
17296;DHT22;8766;51.480;6.872;2022-10-01T09:33:20;15.70;63.30
17296;DHT22;8766;51.480;6.872;2022-10-01T09:35:50;15.70;63.30
17296;DHT22;8766;51.480;6.872;2022-10-01T09:38:28;15.70;63.30
17296;DHT22;8766;51.480;6.872;2022-10-01T09:40:58;15.90;63.20
17296;DHT22;8766;51.480;6.872;2022-10-01T09:43:28;16.00;62.80
17296;DHT22;8766;51.480;6.872;2022-10-01T09:45:55;16.00;62.60
17296;DHT22;8766;51.480;6.872;2022-10-01T09:48:29;16.00;62.50
17296;DHT22;8766;51.480;6.872;2022-10-01T09:51:02;16.00;62.80
17296;DHT22;8766;51.480;6.872;2022-10-01T09:53:35;15.90;63.10
17296;DHT22;8766;51.480;6.872;2022-10-01T09:56:12;15.70;63.30
17296;DHT22;8766;51.480;6.872;2022-10-01T09:58:43;15.60;63.60
17296;DHT22;8766;51.480;6.872;2022-10-01T10:01:20;15.60;63.80
17296;DHT22;8766;51.480;6.872;2022-10-01T10:03:55;15.60;63.90
17296;DHT22;8766;51.480;6.872;2022-10-01T10:06:26;15.70;63.80
17296;DHT22;8766;51.480;6.872;2022-10-01T10:08:56;15.70;63.60
17296;DHT22;8766;51.480;6.872;2022-10-01T10:11:26;15.80;63.50
17296;DHT22;8766;51.480;6.872;2022-10-01T10:13:55;15.90;63.30
17296;DHT22;8766;51.480;6.872;2022-10-01T10:16:26;16.00;63.20
17296;DHT22;8766;51.480;6.872;2022-10-01T10:18:55;16.20;62.80
17296;DHT22;8766;51.480;6.872;2022-10-01T10:21:26;16.50;62.30
17296;DHT22;8766;51.480;6.872;2022-10-01T10:23:56;16.80;61.50
17296;DHT22;8766;51.480;6.872;2022-10-01T10:26:27;17.00;60.90
17296;DHT22;8766;51.480;6.872;2022-10-01T10:28:57;17.20;60.80
17296;DHT22;8766;51.480;6.872;2022-10-01T10:31:25;17.20;60.80
17296;DHT22;8766;51.480;6.872;2022-10-01T10:33:57;17.20;60.70
17296;DHT22;8766;51.480;6.872;2022-10-01T10:36:28;17.30;60.60
17296;DHT22;8766;51.480;6.872;2022-10-01T10:38:57;17.40;60.60
17296;DHT22;8766;51.480;6.872;2022-10-01T10:41:25;17.40;60.60
17296;DHT22;8766;51.480;6.872;2022-10-01T10:43:58;17.40;60.60
17296;DHT22;8766;51.480;6.872;2022-10-01T10:46:30;17.50;60.50
17296;DHT22;8766;51.480;6.872;2022-10-01T10:49:03;17.60;60.40
17296;DHT22;8766;51.480;6.872;2022-10-01T10:51:44;17.60;60.30
17296;DHT22;8766;51.480;6.872;2022-10-01T10:54:24;17.70;60.40
17296;DHT22;8766;51.480;6.872;2022-10-01T10:56:59;17.70;60.40
17296;DHT22;8766;51.480;6.872;2022-10-01T10:59:31;17.70;60.30
17296;DHT22;8766;51.480;6.872;2022-10-01T11:02:00;17.70;60.40
17296;DHT22;8766;51.480;6.872;2022-10-01T11:04:36;17.80;60.50
17296;DHT22;8766;51.480;6.872;2022-10-01T11:07:05;17.80;60.40
17296;DHT22;8766;51.480;6.872;2022-10-01T11:09:44;17.90;60.30
17296;DHT22;8766;51.480;6.872;2022-10-01T11:12:22;18.00;60.20
17296;DHT22;8766;51.480;6.872;2022-10-01T11:15:08;18.10;60.10
17296;DHT22;8766;51.480;6.872;2022-10-01T11:18:02;18.10;60.10
17296;DHT22;8766;51.480;6.872;2022-10-01T11:20:39;18.10;60.20
17296;DHT22;8766;51.480;6.872;2022-10-01T11:23:37;18.10;60.30
17296;DHT22;8766;51.480;6.872;2022-10-01T11:26:18;18.10;60.30
17296;DHT22;8766;51.480;6.872;2022-10-01T11:29:01;18.10;60.30
17296;DHT22;8766;51.480;6.872;2022-10-01T11:31:36;18.10;60.30
17296;DHT22;8766;51.480;6.872;2022-10-01T11:37:11;18.10;60.50
17296;DHT22;8766;51.480;6.872;2022-10-01T11:39:42;18.20;60.30
17296;DHT22;8766;51.480;6.872;2022-10-01T11:42:18;18.30;60.10
17296;DHT22;8766;51.480;6.872;2022-10-01T11:44:51;18.30;60.10
17296;DHT22;8766;51.480;6.872;2022-10-01T11:47:26;18.20;60.40
17296;DHT22;8766;51.480;6.872;2022-10-01T11:49:57;18.00;60.80
17296;DHT22;8766;51.480;6.872;2022-10-01T11:52:31;17.80;61.20
17296;DHT22;8766;51.480;6.872;2022-10-01T11:55:13;17.70;61.60
17296;DHT22;8766;51.480;6.872;2022-10-01T11:58:05;17.50;62.10
17296;DHT22;8766;51.480;6.872;2022-10-01T12:01:01;17.50;62.40
17296;DHT22;8766;51.480;6.872;2022-10-01T12:03:37;17.60;62.00
17296;DHT22;8766;51.480;6.872;2022-10-01T12:06:06;17.80;61.50
17296;DHT22;8766;51.480;6.872;2022-10-01T12:08:43;18.00;61.20
17296;DHT22;8766;51.480;6.872;2022-10-01T12:11:17;18.30;60.80
17296;DHT22;8766;51.480;6.872;2022-10-01T12:13:54;18.30;60.40
17296;DHT22;8766;51.480;6.872;2022-10-01T12:16:29;18.40;60.40
17296;DHT22;8766;51.480;6.872;2022-10-01T12:19:01;18.30;60.40
17296;DHT22;8766;51.480;6.872;2022-10-01T12:21:33;18.30;60.60
17296;DHT22;8766;51.480;6.872;2022-10-01T12:24:03;18.30;60.70
17296;DHT22;8766;51.480;6.872;2022-10-01T12:26:38;18.30;60.60
17296;DHT22;8766;51.480;6.872;2022-10-01T12:29:13;18.40;61.20
17296;DHT22;8766;51.480;6.872;2022-10-01T12:31:48;18.40;60.50
17296;DHT22;8766;51.480;6.872;2022-10-01T12:34:22;18.40;60.40
17296;DHT22;8766;51.480;6.872;2022-10-01T12:37:02;18.40;60.50
17296;DHT22;8766;51.480;6.872;2022-10-01T12:39:45;18.50;60.50
17296;DHT22;8766;51.480;6.872;2022-10-01T12:42:33;18.50;60.50
17296;DHT22;8766;51.480;6.872;2022-10-01T12:45:12;18.40;60.50
17296;DHT22;8766;51.480;6.872;2022-10-01T12:47:51;18.50;60.50
17296;DHT22;8766;51.480;6.872;2022-10-01T12:50:29;18.60;60.20
17296;DHT22;8766;51.480;6.872;2022-10-01T12:53:16;18.70;60.00
17296;DHT22;8766;51.480;6.872;2022-10-01T12:55:55;18.80;59.90
17296;DHT22;8766;51.480;6.872;2022-10-01T12:58:44;18.80;59.90
17296;DHT22;8766;51.480;6.872;2022-10-01T13:01:21;18.80;60.00
17296;DHT22;8766;51.480;6.872;2022-10-01T13:04:16;18.80;60.60
17296;DHT22;8766;51.480;6.872;2022-10-01T13:06:56;18.70;60.30
17296;DHT22;8766;51.480;6.872;2022-10-01T13:09:43;18.70;60.20
17296;DHT22;8766;51.480;6.872;2022-10-01T13:12:24;18.70;60.30
17296;DHT22;8766;51.480;6.872;2022-10-01T13:14:57;18.80;60.30
17296;DHT22;8766;51.480;6.872;2022-10-01T13:17:32;18.90;60.80
17296;DHT22;8766;51.480;6.872;2022-10-01T13:20:11;18.90;59.90
17296;DHT22;8766;51.480;6.872;2022-10-01T13:22:44;19.00;59.80
17296;DHT22;8766;51.480;6.872;2022-10-01T13:25:25;19.00;59.80
17296;DHT22;8766;51.480;6.872;2022-10-01T13:28:01;19.00;59.90
17296;DHT22;8766;51.480;6.872;2022-10-01T13:30:33;18.90;60.00
17296;DHT22;8766;51.480;6.872;2022-10-01T13:33:18;18.80;60.20
17296;DHT22;8766;51.480;6.872;2022-10-01T13:35:54;18.70;60.50
17296;DHT22;8766;51.480;6.872;2022-10-01T13:38:27;18.50;61.00
17296;DHT22;8766;51.480;6.872;2022-10-01T13:41:02;18.30;61.40
17296;DHT22;8766;51.480;6.872;2022-10-01T13:43:32;18.30;61.60
17296;DHT22;8766;51.480;6.872;2022-10-01T13:46:05;18.30;61.50
17296;DHT22;8766;51.480;6.872;2022-10-01T13:48:36;18.40;61.40
17296;DHT22;8766;51.480;6.872;2022-10-01T13:51:12;18.60;61.10
17296;DHT22;8766;51.480;6.872;2022-10-01T13:53:45;18.70;60.70
17296;DHT22;8766;51.480;6.872;2022-10-01T13:56:28;18.80;60.30
17296;DHT22;8766;51.480;6.872;2022-10-01T13:58:58;18.80;60.20
17296;DHT22;8766;51.480;6.872;2022-10-01T14:01:38;18.80;60.30
17296;DHT22;8766;51.480;6.872;2022-10-01T14:04:20;18.80;60.30
17296;DHT22;8766;51.480;6.872;2022-10-01T14:06:51;18.80;60.40
17296;DHT22;8766;51.480;6.872;2022-10-01T14:09:22;18.70;60.50
17296;DHT22;8766;51.480;6.872;2022-10-01T14:11:54;18.60;60.80
17296;DHT22;8766;51.480;6.872;2022-10-01T14:14:42;18.50;61.10
17296;DHT22;8766;51.480;6.872;2022-10-01T14:17:32;18.30;61.40
17296;DHT22;8766;51.480;6.872;2022-10-01T14:20:17;18.20;61.70
17296;DHT22;8766;51.480;6.872;2022-10-01T14:22:59;18.00;62.10
17296;DHT22;8766;51.480;6.872;2022-10-01T14:25:38;17.90;62.40
17296;DHT22;8766;51.480;6.872;2022-10-01T14:28:31;17.90;62.50
17296;DHT22;8766;51.480;6.872;2022-10-01T14:31:06;17.90;62.50
17296;DHT22;8766;51.480;6.872;2022-10-01T14:36:42;17.80;62.60
17296;DHT22;8766;51.480;6.872;2022-10-01T14:39:13;17.70;62.60
17296;DHT22;8766;51.480;6.872;2022-10-01T14:41:42;17.60;62.70
17296;DHT22;8766;51.480;6.872;2022-10-01T14:44:24;17.60;62.90
17296;DHT22;8766;51.480;6.872;2022-10-01T14:46:55;17.60;63.00
17296;DHT22;8766;51.480;6.872;2022-10-01T14:49:24;17.60;62.90
17296;DHT22;8766;51.480;6.872;2022-10-01T14:51:57;17.70;62.80
17296;DHT22;8766;51.480;6.872;2022-10-01T14:54:26;17.70;62.60
17296;DHT22;8766;51.480;6.872;2022-10-01T14:56:54;17.60;62.70
17296;DHT22;8766;51.480;6.872;2022-10-01T14:59:31;17.50;62.80
17296;DHT22;8766;51.480;6.872;2022-10-01T15:02:02;17.50;63.10
17296;DHT22;8766;51.480;6.872;2022-10-01T15:04:33;17.60;63.10
17296;DHT22;8766;51.480;6.872;2022-10-01T15:07:11;17.60;62.80
17296;DHT22;8766;51.480;6.872;2022-10-01T15:09:39;17.70;62.50
17296;DHT22;8766;51.480;6.872;2022-10-01T15:12:06;17.80;62.20
17296;DHT22;8766;51.480;6.872;2022-10-01T15:14:35;17.90;62.10
17296;DHT22;8766;51.480;6.872;2022-10-01T15:17:03;17.90;61.90
17296;DHT22;8766;51.480;6.872;2022-10-01T15:19:32;18.00;61.90
17296;DHT22;8766;51.480;6.872;2022-10-01T15:22:02;18.00;61.80
17296;DHT22;8766;51.480;6.872;2022-10-01T15:24:37;18.00;61.80
17296;DHT22;8766;51.480;6.872;2022-10-01T15:27:07;17.90;61.90
17296;DHT22;8766;51.480;6.872;2022-10-01T15:29:35;17.90;61.90
17296;DHT22;8766;51.480;6.872;2022-10-01T15:32:04;17.90;62.00
17296;DHT22;8766;51.480;6.872;2022-10-01T15:34:32;17.80;62.10
17296;DHT22;8766;51.480;6.872;2022-10-01T15:36:59;17.70;62.30
17296;DHT22;8766;51.480;6.872;2022-10-01T15:39:31;17.60;62.40
17296;DHT22;8766;51.480;6.872;2022-10-01T15:42:04;17.60;62.50
17296;DHT22;8766;51.480;6.872;2022-10-01T15:44:44;17.60;62.60
17296;DHT22;8766;51.480;6.872;2022-10-01T15:47:25;17.50;62.70
17296;DHT22;8766;51.480;6.872;2022-10-01T15:50:08;17.50;62.80
17296;DHT22;8766;51.480;6.872;2022-10-01T15:52:45;17.40;62.90
17296;DHT22;8766;51.480;6.872;2022-10-01T15:55:21;17.40;63.00
17296;DHT22;8766;51.480;6.872;2022-10-01T15:57:50;17.30;62.90
17296;DHT22;8766;51.480;6.872;2022-10-01T16:00:21;17.30;63.10
17296;DHT22;8766;51.480;6.872;2022-10-01T16:02:49;17.20;63.10
17296;DHT22;8766;51.480;6.872;2022-10-01T16:05:19;17.10;63.20
17296;DHT22;8766;51.480;6.872;2022-10-01T16:07:49;17.10;63.40
17296;DHT22;8766;51.480;6.872;2022-10-01T16:10:34;17.00;63.40
17296;DHT22;8766;51.480;6.872;2022-10-01T16:13:27;17.00;63.50
17296;DHT22;8766;51.480;6.872;2022-10-01T16:16:19;16.90;63.60
17296;DHT22;8766;51.480;6.872;2022-10-01T16:18:51;16.90;63.60
17296;DHT22;8766;51.480;6.872;2022-10-01T16:21:20;16.90;63.60
17296;DHT22;8766;51.480;6.872;2022-10-01T16:23:49;16.80;63.50
17296;DHT22;8766;51.480;6.872;2022-10-01T16:26:37;16.80;63.60
17296;DHT22;8766;51.480;6.872;2022-10-01T16:29:16;16.80;63.70
17296;DHT22;8766;51.480;6.872;2022-10-01T16:31:44;16.80;63.80